Weather at Niagara Central Dorothy Rungeling Airport

Public forecast

Using degrees Celsius for public forecast. Weather courtesy of forecast.io.

Closest aviation weather report (METAR) to Niagara Central Dorothy Rungeling Airport

Closest report is Niagara District Airport, 14.4 nm (26.7 km) NNE.

2024/05/26 18:00 (retrieved 42 minutes ago)

CYSN 261800Z 34006KT 320V030 8SM FEW010 SCT150 BKN250 20/18 A2992 RMK SC2AC1CI2 SLP133 DENSITY ALT 1000FT

Closest aviation forecast (TAF) to Niagara Central Dorothy Rungeling Airport

Closest forecast is Niagara District Airport, 14.4 nm (26.7 km) NNE.

2024/05/26 15:12 Ammendment (retrieved 4 hours ago)

TAF AMD TAF AMD CYSN 261510Z 2615/2701 01008KT 6SM BR BKN010 TEMPO 2615/2617 2SM BR OVC003 FM261700 02010KT P6SM FEW020 SCT240 BECMG 2622/2624 06012KT RMK NXT FCST BY 262000Z